sensor_id;sensor_type;location;lat;lon;timestamp;pressure;altitude;pressure_sealevel;temperature;humidity
76311;BME280;65120;59.304;18.294;2022-12-18T00:02:19;102184.94;;;-1.27;72.63
76311;BME280;65120;59.304;18.294;2022-12-18T00:04:47;102180.53;;;-1.30;72.37
76311;BME280;65120;59.304;18.294;2022-12-18T00:07:15;102189.34;;;-1.25;72.28
76311;BME280;65120;59.304;18.294;2022-12-18T00:09:42;102196.25;;;-1.24;72.48
76311;BME280;65120;59.304;18.294;2022-12-18T00:12:08;102190.28;;;-1.23;72.59
76311;BME280;65120;59.304;18.294;2022-12-18T00:14:35;102184.38;;;-1.22;72.46
76311;BME280;65120;59.304;18.294;2022-12-18T00:17:02;102186.13;;;-1.21;72.60
76311;BME280;65120;59.304;18.294;2022-12-18T00:19:29;102182.75;;;-1.20;72.71
76311;BME280;65120;59.304;18.294;2022-12-18T00:21:55;102181.97;;;-1.19;72.33
76311;BME280;65120;59.304;18.294;2022-12-18T00:24:24;102178.59;;;-1.18;72.48
76311;BME280;65120;59.304;18.294;2022-12-18T00:26:51;102193.22;;;-1.17;72.73
76311;BME280;65120;59.304;18.294;2022-12-18T00:29:18;102195.84;;;-1.15;72.25
76311;BME280;65120;59.304;18.294;2022-12-18T00:31:45;102201.84;;;-1.15;73.01
76311;BME280;65120;59.304;18.294;2022-12-18T00:34:12;102207.06;;;-1.13;72.70
76311;BME280;65120;59.304;18.294;2022-12-18T00:36:40;102196.09;;;-1.10;72.35
76311;BME280;65120;59.304;18.294;2022-12-18T00:39:07;102189.19;;;-1.11;72.77
76311;BME280;65120;59.304;18.294;2022-12-18T00:41:35;102195.28;;;-1.09;72.23
76311;BME280;65120;59.304;18.294;2022-12-18T00:44:20;102192.81;;;-1.08;72.50
76311;BME280;65120;59.304;18.294;2022-12-18T00:46:47;102185.97;;;-1.07;72.42
76311;BME280;65120;59.304;18.294;2022-12-18T00:49:15;102179.16;;;-1.07;72.80
76311;BME280;65120;59.304;18.294;2022-12-18T00:51:42;102174.91;;;-1.06;72.53
76311;BME280;65120;59.304;18.294;2022-12-18T00:54:10;102174.19;;;-1.04;72.69
76311;BME280;65120;59.304;18.294;2022-12-18T00:56:38;102172.50;;;-1.03;72.51
76311;BME280;65120;59.304;18.294;2022-12-18T00:59:05;102166.59;;;-1.02;72.71
76311;BME280;65120;59.304;18.294;2022-12-18T01:01:32;102176.03;;;-1.01;72.52
76311;BME280;65120;59.304;18.294;2022-12-18T01:04:01;102170.97;;;-1.00;72.90
76311;BME280;65120;59.304;18.294;2022-12-18T01:06:28;102161.28;;;-1.05;72.71
76311;BME280;65120;59.304;18.294;2022-12-18T01:08:54;102170.97;;;-1.00;72.99
76311;BME280;65120;59.304;18.294;2022-12-18T01:11:22;102175.38;;;-0.97;72.63
76311;BME280;65120;59.304;18.294;2022-12-18T01:13:52;102176.28;;;-0.97;73.02
76311;BME280;65120;59.304;18.294;2022-12-18T01:16:19;102178.91;;;-0.95;72.90
76311;BME280;65120;59.304;18.294;2022-12-18T01:18:46;102180.66;;;-0.94;72.47
76311;BME280;65120;59.304;18.294;2022-12-18T01:21:14;102174.75;;;-0.93;72.51
76311;BME280;65120;59.304;18.294;2022-12-18T01:23:41;102177.31;;;-0.93;72.90
76311;BME280;65120;59.304;18.294;2022-12-18T01:26:09;102163.53;;;-0.95;72.61
76311;BME280;65120;59.304;18.294;2022-12-18T01:28:37;102180.84;;;-0.91;72.71
76311;BME280;65120;59.304;18.294;2022-12-18T01:31:17;102181.78;;;-0.89;72.44
76311;BME280;65120;59.304;18.294;2022-12-18T01:33:45;102177.22;;;-0.95;72.49
76311;BME280;65120;59.304;18.294;2022-12-18T01:36:17;102203.28;;;-0.87;72.32
76311;BME280;65120;59.304;18.294;2022-12-18T01:38:44;102191.31;;;-0.86;72.35
76311;BME280;65120;59.304;18.294;2022-12-18T01:41:11;102192.19;;;-0.86;73.15
76311;BME280;65120;59.304;18.294;2022-12-18T01:43:43;102197.41;;;-0.84;72.89
76311;BME280;65120;59.304;18.294;2022-12-18T01:46:10;102192.28;;;-0.84;72.45
76311;BME280;65120;59.304;18.294;2022-12-18T01:48:39;102192.34;;;-0.83;72.75
76311;BME280;65120;59.304;18.294;2022-12-18T01:51:08;102189.00;;;-0.82;72.58
76311;BME280;65120;59.304;18.294;2022-12-18T01:53:37;102183.06;;;-0.81;72.34
76311;BME280;65120;59.304;18.294;2022-12-18T01:56:06;102181.44;;;-0.79;72.70
76311;BME280;65120;59.304;18.294;2022-12-18T01:58:39;102174.72;;;-0.77;72.65
76311;BME280;65120;59.304;18.294;2022-12-18T02:01:08;102179.03;;;-0.76;72.83
76311;BME280;65120;59.304;18.294;2022-12-18T02:03:35;102163.66;;;-0.76;72.63
76311;BME280;65120;59.304;18.294;2022-12-18T02:06:07;102152.34;;;-0.79;72.63
76311;BME280;65120;59.304;18.294;2022-12-18T02:08:43;102163.69;;;-0.74;72.33
76311;BME280;65120;59.304;18.294;2022-12-18T02:11:20;102163.78;;;-0.73;72.54
76311;BME280;65120;59.304;18.294;2022-12-18T02:13:53;102159.53;;;-0.72;73.06
76311;BME280;65120;59.304;18.294;2022-12-18T02:16:26;102150.16;;;-0.72;73.03
76311;BME280;65120;59.304;18.294;2022-12-18T02:18:58;102164.75;;;-0.71;73.08
76311;BME280;65120;59.304;18.294;2022-12-18T02:21:34;102150.97;;;-0.73;72.37
76311;BME280;65120;59.304;18.294;2022-12-18T02:24:14;102160.56;;;-0.69;72.17
76311;BME280;65120;59.304;18.294;2022-12-18T02:26:46;102160.56;;;-0.69;72.24
76311;BME280;65120;59.304;18.294;2022-12-18T02:29:16;102159.78;;;-0.68;72.47
76311;BME280;65120;59.304;18.294;2022-12-18T02:31:50;102161.53;;;-0.66;72.51
76311;BME280;65120;59.304;18.294;2022-12-18T02:34:20;102167.53;;;-0.66;72.33
76311;BME280;65120;59.304;18.294;2022-12-18T02:36:48;102162.41;;;-0.66;72.74
76311;BME280;65120;59.304;18.294;2022-12-18T02:39:17;102171.06;;;-0.64;72.73
76311;BME280;65120;59.304;18.294;2022-12-18T02:41:46;102166.91;;;-0.62;72.95
76311;BME280;65120;59.304;18.294;2022-12-18T02:44:14;102172.81;;;-0.63;72.83
76311;BME280;65120;59.304;18.294;2022-12-18T02:46:42;102151.34;;;-0.65;72.77
76311;BME280;65120;59.304;18.294;2022-12-18T02:49:21;102161.81;;;-0.60;72.66
76311;BME280;65120;59.304;18.294;2022-12-18T02:51:55;102157.56;;;-0.60;72.47
76311;BME280;65120;59.304;18.294;2022-12-18T02:54:41;102154.22;;;-0.59;72.83
76311;BME280;65120;59.304;18.294;2022-12-18T02:57:18;102145.63;;;-0.59;72.47
76311;BME280;65120;59.304;18.294;2022-12-18T02:59:56;102136.25;;;-0.59;72.77
76311;BME280;65120;59.304;18.294;2022-12-18T03:02:27;102135.44;;;-0.58;72.44
76311;BME280;65120;59.304;18.294;2022-12-18T03:05:01;102137.13;;;-0.58;72.05
76311;BME280;65120;59.304;18.294;2022-12-18T03:07:37;102129.41;;;-0.58;72.17
76311;BME280;65120;59.304;18.294;2022-12-18T03:10:07;102127.81;;;-0.56;72.59
76311;BME280;65120;59.304;18.294;2022-12-18T03:12:40;102126.94;;;-0.57;72.80
76311;BME280;65120;59.304;18.294;2022-12-18T03:15:10;102131.16;;;-0.57;72.36
76311;BME280;65120;59.304;18.294;2022-12-18T03:17:43;102141.44;;;-0.57;72.55
76311;BME280;65120;59.304;18.294;2022-12-18T03:20:16;102145.78;;;-0.56;72.20
76311;BME280;65120;59.304;18.294;2022-12-18T03:22:47;102143.28;;;-0.55;72.27
76311;BME280;65120;59.304;18.294;2022-12-18T03:25:17;102129.56;;;-0.55;72.47
76311;BME280;65120;59.304;18.294;2022-12-18T03:27:49;102130.28;;;-0.58;72.04
76311;BME280;65120;59.304;18.294;2022-12-18T03:30:18;102137.38;;;-0.54;71.98
76311;BME280;65120;59.304;18.294;2022-12-18T03:32:48;102139.03;;;-0.54;72.42
76311;BME280;65120;59.304;18.294;2022-12-18T03:35:22;102144.25;;;-0.53;72.17
76311;BME280;65120;59.304;18.294;2022-12-18T03:37:50;102120.19;;;-0.55;72.71
76311;BME280;65120;59.304;18.294;2022-12-18T03:40:19;102128.84;;;-0.53;72.41
76311;BME280;65120;59.304;18.294;2022-12-18T03:42:52;102131.50;;;-0.51;72.64
76311;BME280;65120;59.304;18.294;2022-12-18T03:45:23;102128.75;;;-0.54;71.90
76311;BME280;65120;59.304;18.294;2022-12-18T03:47:59;102125.41;;;-0.53;72.15
76311;BME280;65120;59.304;18.294;2022-12-18T03:50:36;102133.25;;;-0.50;72.04
76311;BME280;65120;59.304;18.294;2022-12-18T03:53:14;102129.88;;;-0.49;72.21
76311;BME280;65120;59.304;18.294;2022-12-18T03:55:43;102130.72;;;-0.49;72.71
76311;BME280;65120;59.304;18.294;2022-12-18T03:58:15;102133.38;;;-0.47;72.57
76311;BME280;65120;59.304;18.294;2022-12-18T04:00:43;102114.56;;;-0.48;72.06
76311;BME280;65120;59.304;18.294;2022-12-18T04:03:12;102111.09;;;-0.48;71.98
76311;BME280;65120;59.304;18.294;2022-12-18T04:05:41;102118.66;;;-0.51;72.05
76311;BME280;65120;59.304;18.294;2022-12-18T04:08:09;102118.00;;;-0.47;72.31
76311;BME280;65120;59.304;18.294;2022-12-18T04:10:36;102114.59;;;-0.46;72.00
76311;BME280;65120;59.304;18.294;2022-12-18T04:13:03;102120.66;;;-0.46;71.46
76311;BME280;65120;59.304;18.294;2022-12-18T04:15:33;102113.81;;;-0.45;72.20
76311;BME280;65120;59.304;18.294;2022-12-18T04:18:01;102118.94;;;-0.45;71.65
76311;BME280;65120;59.304;18.294;2022-12-18T04:20:28;102114.59;;;-0.46;72.14
76311;BME280;65120;59.304;18.294;2022-12-18T04:22:55;102119.81;;;-0.44;71.57
76311;BME280;65120;59.304;18.294;2022-12-18T04:25:22;102130.00;;;-0.46;71.68
76311;BME280;65120;59.304;18.294;2022-12-18T04:27:48;102131.78;;;-0.45;72.27
76311;BME280;65120;59.304;18.294;2022-12-18T04:30:15;102124.88;;;-0.46;71.81
76311;BME280;65120;59.304;18.294;2022-12-18T04:32:43;102130.00;;;-0.46;72.08
76311;BME280;65120;59.304;18.294;2022-12-18T04:35:10;102133.47;;;-0.46;71.54
76311;BME280;65120;59.304;18.294;2022-12-18T04:37:37;102129.22;;;-0.45;71.65
76311;BME280;65120;59.304;18.294;2022-12-18T04:40:05;102120.66;;;-0.46;71.90
76311;BME280;65120;59.304;18.294;2022-12-18T04:42:32;102123.13;;;-0.47;71.89
76311;BME280;65120;59.304;18.294;2022-12-18T04:44:59;102120.66;;;-0.46;71.81
76311;BME280;65120;59.304;18.294;2022-12-18T04:47:26;102126.66;;;-0.45;71.98
76311;BME280;65120;59.304;18.294;2022-12-18T04:49:54;102119.00;;;-0.43;72.15
76311;BME280;65120;59.304;18.294;2022-12-18T04:52:21;102117.25;;;-0.44;71.71
76311;BME280;65120;59.304;18.294;2022-12-18T04:54:47;102123.28;;;-0.44;71.62
76311;BME280;65120;59.304;18.294;2022-12-18T04:57:14;102119.00;;;-0.43;71.51
76311;BME280;65120;59.304;18.294;2022-12-18T04:59:41;102121.53;;;-0.45;71.95
76311;BME280;65120;59.304;18.294;2022-12-18T05:02:07;102128.41;;;-0.44;72.01
76311;BME280;65120;59.304;18.294;2022-12-18T05:04:34;102126.66;;;-0.45;71.59
76311;BME280;65120;59.304;18.294;2022-12-18T05:07:02;102106.13;;;-0.45;71.31
76311;BME280;65120;59.304;18.294;2022-12-18T05:09:29;102110.38;;;-0.46;71.29
76311;BME280;65120;59.304;18.294;2022-12-18T05:11:56;102107.81;;;-0.46;71.24
76311;BME280;65120;59.304;18.294;2022-12-18T05:14:23;102105.25;;;-0.46;71.62
76311;BME280;65120;59.304;18.294;2022-12-18T05:16:49;102091.50;;;-0.46;71.42
76311;BME280;65120;59.304;18.294;2022-12-18T05:19:16;102076.91;;;-0.47;71.25
76311;BME280;65120;59.304;18.294;2022-12-18T05:21:43;102089.84;;;-0.46;71.68
76311;BME280;65120;59.304;18.294;2022-12-18T05:24:11;102073.53;;;-0.46;72.08
76311;BME280;65120;59.304;18.294;2022-12-18T05:26:38;102077.88;;;-0.45;71.08
76311;BME280;65120;59.304;18.294;2022-12-18T05:29:05;102070.91;;;-0.48;71.34
76311;BME280;65120;59.304;18.294;2022-12-18T05:31:32;102053.25;;;-0.59;71.56
76311;BME280;65120;59.304;18.294;2022-12-18T05:33:58;102058.88;;;-0.49;71.78
76311;BME280;65120;59.304;18.294;2022-12-18T05:36:25;102059.78;;;-0.48;71.14
76311;BME280;65120;59.304;18.294;2022-12-18T05:38:52;102063.13;;;-0.49;71.19
76311;BME280;65120;59.304;18.294;2022-12-18T05:41:20;102056.25;;;-0.50;71.69
76311;BME280;65120;59.304;18.294;2022-12-18T05:43:47;102069.91;;;-0.51;71.48
76311;BME280;65120;59.304;18.294;2022-12-18T05:46:15;102064.75;;;-0.51;71.41
76311;BME280;65120;59.304;18.294;2022-12-18T05:48:42;102069.91;;;-0.51;71.94
76311;BME280;65120;59.304;18.294;2022-12-18T05:51:12;102068.13;;;-0.52;71.54
76311;BME280;65120;59.304;18.294;2022-12-18T05:53:40;102062.97;;;-0.52;71.61
76311;BME280;65120;59.304;18.294;2022-12-18T05:56:10;102062.97;;;-0.52;72.00
76311;BME280;65120;59.304;18.294;2022-12-18T05:58:38;102056.88;;;-0.54;71.38
76311;BME280;65120;59.304;18.294;2022-12-18T06:01:11;102057.72;;;-0.55;71.36
76311;BME280;65120;59.304;18.294;2022-12-18T06:03:38;102050.97;;;-0.53;71.45
76311;BME280;65120;59.304;18.294;2022-12-18T06:06:12;102051.75;;;-0.54;71.25
76311;BME280;65120;59.304;18.294;2022-12-18T06:08:39;102046.63;;;-0.54;71.64
76311;BME280;65120;59.304;18.294;2022-12-18T06:11:06;102044.97;;;-0.54;71.03
76311;BME280;65120;59.304;18.294;2022-12-18T06:13:33;102038.13;;;-0.53;71.36
76311;BME280;65120;59.304;18.294;2022-12-18T06:16:03;102040.69;;;-0.53;71.29
76311;BME280;65120;59.304;18.294;2022-12-18T06:18:30;102041.50;;;-0.54;71.84
76311;BME280;65120;59.304;18.294;2022-12-18T06:20:58;102044.06;;;-0.54;71.31
76311;BME280;65120;59.304;18.294;2022-12-18T06:23:25;102047.53;;;-0.54;71.38
76311;BME280;65120;59.304;18.294;2022-12-18T06:25:53;102030.44;;;-0.53;71.64
76311;BME280;65120;59.304;18.294;2022-12-18T06:28:20;102033.00;;;-0.53;71.48
76311;BME280;65120;59.304;18.294;2022-12-18T06:30:47;102030.44;;;-0.53;71.37
76311;BME280;65120;59.304;18.294;2022-12-18T06:33:16;102020.16;;;-0.53;71.04
76311;BME280;65120;59.304;18.294;2022-12-18T06:35:43;102025.31;;;-0.53;71.39
76311;BME280;65120;59.304;18.294;2022-12-18T06:38:09;102026.19;;;-0.53;71.29
76311;BME280;65120;59.304;18.294;2022-12-18T06:40:37;102032.19;;;-0.52;71.87
76311;BME280;65120;59.304;18.294;2022-12-18T06:43:04;102022.72;;;-0.53;71.89
76311;BME280;65120;59.304;18.294;2022-12-18T06:45:31;102022.88;;;-0.50;71.50
76311;BME280;65120;59.304;18.294;2022-12-18T06:47:58;102018.56;;;-0.51;71.36
76311;BME280;65120;59.304;18.294;2022-12-18T06:50:26;102025.44;;;-0.50;71.53
76311;BME280;65120;59.304;18.294;2022-12-18T06:52:53;102020.31;;;-0.50;71.11
76311;BME280;65120;59.304;18.294;2022-12-18T06:55:19;102028.97;;;-0.48;71.89
76311;BME280;65120;59.304;18.294;2022-12-18T06:57:46;102033.28;;;-0.47;71.34
76311;BME280;65120;59.304;18.294;2022-12-18T07:00:13;102029.84;;;-0.48;71.63
76311;BME280;65120;59.304;18.294;2022-12-18T07:02:40;102023.84;;;-0.48;71.71
76311;BME280;65120;59.304;18.294;2022-12-18T07:05:07;102021.28;;;-0.48;72.11
76311;BME280;65120;59.304;18.294;2022-12-18T07:07:36;102022.06;;;-0.49;71.68
76311;BME280;65120;59.304;18.294;2022-12-18T07:10:03;102034.25;;;-0.45;71.72
76311;BME280;65120;59.304;18.294;2022-12-18T07:12:30;102025.72;;;-0.44;71.39
76311;BME280;65120;59.304;18.294;2022-12-18T07:14:56;102029.03;;;-0.47;71.51
76311;BME280;65120;59.304;18.294;2022-12-18T07:17:23;102031.69;;;-0.45;71.69
76311;BME280;65120;59.304;18.294;2022-12-18T07:19:50;102036.13;;;-0.41;71.69
76311;BME280;65120;59.304;18.294;2022-12-18T07:22:16;102040.38;;;-0.41;71.93
76311;BME280;65120;59.304;18.294;2022-12-18T07:24:45;102041.34;;;-0.39;71.69
76311;BME280;65120;59.304;18.294;2022-12-18T07:27:11;102047.34;;;-0.39;72.51
76311;BME280;65120;59.304;18.294;2022-12-18T07:29:38;102041.41;;;-0.38;71.52
76311;BME280;65120;59.304;18.294;2022-12-18T07:32:05;102045.75;;;-0.37;71.73
76311;BME280;65120;59.304;18.294;2022-12-18T07:34:32;102032.97;;;-0.35;71.77
76311;BME280;65120;59.304;18.294;2022-12-18T07:36:59;102027.91;;;-0.34;72.12
76311;BME280;65120;59.304;18.294;2022-12-18T07:39:25;102030.53;;;-0.32;72.47
76311;BME280;65120;59.304;18.294;2022-12-18T07:41:53;102034.06;;;-0.30;71.81
76311;BME280;65120;59.304;18.294;2022-12-18T07:44:34;102019.53;;;-0.30;72.90
76311;BME280;65120;59.304;18.294;2022-12-18T07:47:01;102023.78;;;-0.30;72.33
76311;BME280;65120;59.304;18.294;2022-12-18T07:49:28;102024.81;;;-0.27;72.65
76311;BME280;65120;59.304;18.294;2022-12-18T07:51:55;101992.34;;;-0.44;72.09
76311;BME280;65120;59.304;18.294;2022-12-18T07:54:22;102020.50;;;-0.28;72.47
76311;BME280;65120;59.304;18.294;2022-12-18T07:56:48;102026.72;;;-0.22;72.28
76311;BME280;65120;59.304;18.294;2022-12-18T07:59:17;102016.44;;;-0.22;72.47
76311;BME280;65120;59.304;18.294;2022-12-18T08:01:43;102015.63;;;-0.21;72.51
76311;BME280;65120;59.304;18.294;2022-12-18T08:04:10;102026.84;;;-0.19;72.82
76311;BME280;65120;59.304;18.294;2022-12-18T08:06:37;102025.22;;;-0.17;72.38
76311;BME280;65120;59.304;18.294;2022-12-18T08:09:04;102027.00;;;-0.16;73.20
76311;BME280;65120;59.304;18.294;2022-12-18T08:11:30;102034.84;;;-0.13;72.60
76311;BME280;65120;59.304;18.294;2022-12-18T08:13:57;102034.00;;;-0.12;73.40
76311;BME280;65120;59.304;18.294;2022-12-18T08:16:26;102034.16;;;-0.09;73.31
76311;BME280;65120;59.304;18.294;2022-12-18T08:18:53;102019.56;;;-0.10;72.71
76311;BME280;65120;59.304;18.294;2022-12-18T08:21:22;102016.16;;;-0.09;72.96
76311;BME280;65120;59.304;18.294;2022-12-18T08:23:50;102028.41;;;-0.04;72.70
76311;BME280;65120;59.304;18.294;2022-12-18T08:26:17;102025.94;;;-0.02;73.00
76311;BME280;65120;59.304;18.294;2022-12-18T08:28:44;102022.53;;;-0.01;73.20
76311;BME280;65120;59.304;18.294;2022-12-18T08:31:11;102025.25;;;0.02;73.02
76311;BME280;65120;59.304;18.294;2022-12-18T08:33:40;102020.19;;;0.04;73.53
76311;BME280;65120;59.304;18.294;2022-12-18T08:36:08;102018.53;;;0.06;73.08
76311;BME280;65120;59.304;18.294;2022-12-18T08:38:36;102012.66;;;0.08;73.44
76311;BME280;65120;59.304;18.294;2022-12-18T08:41:04;102004.16;;;0.09;73.35
76311;BME280;65120;59.304;18.294;2022-12-18T08:43:31;102006.03;;;0.13;73.37
76311;BME280;65120;59.304;18.294;2022-12-18T08:46:16;102008.69;;;0.15;73.22
76311;BME280;65120;59.304;18.294;2022-12-18T08:48:44;102012.13;;;0.15;73.55
76311;BME280;65120;59.304;18.294;2022-12-18T08:51:11;102021.72;;;0.19;74.01
76311;BME280;65120;59.304;18.294;2022-12-18T08:53:38;102014.84;;;0.18;73.67
76311;BME280;65120;59.304;18.294;2022-12-18T08:56:05;102014.22;;;0.24;73.88
76311;BME280;65120;59.304;18.294;2022-12-18T08:58:32;102008.34;;;0.27;72.97
76311;BME280;65120;59.304;18.294;2022-12-18T09:01:00;102011.88;;;0.29;73.32
76311;BME280;65120;59.304;18.294;2022-12-18T09:03:27;102000.81;;;0.31;72.75
76311;BME280;65120;59.304;18.294;2022-12-18T09:05:55;101999.16;;;0.32;73.52
76311;BME280;65120;59.304;18.294;2022-12-18T09:08:22;102001.00;;;0.36;73.36
76311;BME280;65120;59.304;18.294;2022-12-18T09:10:50;102001.97;;;0.38;73.32
76311;BME280;65120;59.304;18.294;2022-12-18T09:13:17;102010.69;;;0.41;73.47
76311;BME280;65120;59.304;18.294;2022-12-18T09:15:45;102011.63;;;0.43;73.77
76311;BME280;65120;59.304;18.294;2022-12-18T09:18:13;102007.38;;;0.44;73.60
76311;BME280;65120;59.304;18.294;2022-12-18T09:20:40;101998.97;;;0.48;74.19
76311;BME280;65120;59.304;18.294;2022-12-18T09:23:09;102010.28;;;0.52;73.21
76311;BME280;65120;59.304;18.294;2022-12-18T09:25:36;102009.53;;;0.54;73.84
76311;BME280;65120;59.304;18.294;2022-12-18T09:28:05;102008.75;;;0.57;74.08
76311;BME280;65120;59.304;18.294;2022-12-18T09:30:32;102006.25;;;0.58;73.92
76311;BME280;65120;59.304;18.294;2022-12-18T09:33:00;102004.69;;;0.62;74.26
76311;BME280;65120;59.304;18.294;2022-12-18T09:35:26;101993.66;;;0.64;74.08
76311;BME280;65120;59.304;18.294;2022-12-18T09:37:54;101980.91;;;0.67;73.39
76311;BME280;65120;59.304;18.294;2022-12-18T09:40:25;101973.28;;;0.69;73.63
76311;BME280;65120;59.304;18.294;2022-12-18T09:42:57;101963.00;;;0.69;73.30
76311;BME280;65120;59.304;18.294;2022-12-18T09:45:26;101954.66;;;0.75;74.26
76311;BME280;65120;59.304;18.294;2022-12-18T09:47:54;101953.81;;;0.76;74.16
76311;BME280;65120;59.304;18.294;2022-12-18T09:50:26;101959.09;;;0.79;73.50
76311;BME280;65120;59.304;18.294;2022-12-18T09:52:56;101965.22;;;0.82;73.74
76311;BME280;65120;59.304;18.294;2022-12-18T09:55:28;101953.41;;;0.86;74.06
76311;BME280;65120;59.304;18.294;2022-12-18T09:57:58;101957.72;;;0.87;73.64
76311;BME280;65120;59.304;18.294;2022-12-18T10:00:28;101943.25;;;0.90;73.78
76311;BME280;65120;59.304;18.294;2022-12-18T10:02:59;101944.28;;;0.94;73.77
76311;BME280;65120;59.304;18.294;2022-12-18T10:05:33;101933.22;;;0.97;74.34
76311;BME280;65120;59.304;18.294;2022-12-18T10:08:05;101930.72;;;0.98;73.43
76311;BME280;65120;59.304;18.294;2022-12-18T10:10:40;101929.19;;;1.03;73.87
76311;BME280;65120;59.304;18.294;2022-12-18T10:13:16;101922.44;;;1.05;73.87
76311;BME280;65120;59.304;18.294;2022-12-18T10:15:54;101940.56;;;1.08;74.04
76311;BME280;65120;59.304;18.294;2022-12-18T10:18:33;101927.69;;;1.08;73.94
76311;BME280;65120;59.304;18.294;2022-12-18T10:21:07;101923.53;;;1.12;74.13
76311;BME280;65120;59.304;18.294;2022-12-18T10:23:41;101925.38;;;1.16;73.38
76311;BME280;65120;59.304;18.294;2022-12-18T10:26:14;101926.41;;;1.20;74.21
76311;BME280;65120;59.304;18.294;2022-12-18T10:28:41;101919.59;;;1.22;73.81
76311;BME280;65120;59.304;18.294;2022-12-18T10:31:14;101916.34;;;1.26;73.53
76311;BME280;65120;59.304;18.294;2022-12-18T10:33:43;101903.16;;;1.18;73.87
76311;BME280;65120;59.304;18.294;2022-12-18T10:36:09;101921.59;;;1.29;74.18
76311;BME280;65120;59.304;18.294;2022-12-18T10:38:36;101916.56;;;1.32;73.42
76311;BME280;65120;59.304;18.294;2022-12-18T10:41:05;101920.09;;;1.34;74.09
76311;BME280;65120;59.304;18.294;2022-12-18T10:43:37;101923.56;;;1.36;74.00
76311;BME280;65120;59.304;18.294;2022-12-18T10:46:15;101918.53;;;1.39;73.84
76311;BME280;65120;59.304;18.294;2022-12-18T10:48:53;101920.31;;;1.40;73.88
76311;BME280;65120;59.304;18.294;2022-12-18T10:51:23;101928.94;;;1.42;73.67
76311;BME280;65120;59.304;18.294;2022-12-18T10:53:56;101915.16;;;1.40;73.63
76311;BME280;65120;59.304;18.294;2022-12-18T10:56:25;101935.16;;;1.47;73.59
76311;BME280;65120;59.304;18.294;2022-12-18T10:58:59;101923.22;;;1.49;74.45
76311;BME280;65120;59.304;18.294;2022-12-18T11:01:26;101924.16;;;1.51;73.99
76311;BME280;65120;59.304;18.294;2022-12-18T11:04:02;101924.19;;;1.53;73.64
76311;BME280;65120;59.304;18.294;2022-12-18T11:06:33;101916.56;;;1.54;73.78
76311;BME280;65120;59.304;18.294;2022-12-18T11:09:02;101917.47;;;1.56;73.24
76311;BME280;65120;59.304;18.294;2022-12-18T11:11:29;101926.13;;;1.58;73.93
76311;BME280;65120;59.304;18.294;2022-12-18T11:14:02;101922.78;;;1.61;73.42
76311;BME280;65120;59.304;18.294;2022-12-18T11:16:34;101917.72;;;1.63;73.45
76311;BME280;65120;59.304;18.294;2022-12-18T11:19:29;101908.28;;;1.63;73.58
76311;BME280;65120;59.304;18.294;2022-12-18T11:21:56;101884.06;;;1.58;73.51
76311;BME280;65120;59.304;18.294;2022-12-18T11:24:28;101904.97;;;1.67;73.35
76311;BME280;65120;59.304;18.294;2022-12-18T11:26:57;101911.91;;;1.68;73.68
76311;BME280;65120;59.304;18.294;2022-12-18T11:29:31;101906.00;;;1.71;73.40
76311;BME280;65120;59.304;18.294;2022-12-18T11:32:21;101900.00;;;1.72;73.93
76311;BME280;65120;59.304;18.294;2022-12-18T11:34:53;101892.28;;;1.72;73.42
76311;BME280;65120;59.304;18.294;2022-12-18T11:37:22;101900.94;;;1.74;73.72
76311;BME280;65120;59.304;18.294;2022-12-18T11:39:52;101892.38;;;1.75;73.72
76311;BME280;65120;59.304;18.294;2022-12-18T11:42:25;101904.44;;;1.76;73.44
76311;BME280;65120;59.304;18.294;2022-12-18T11:45:01;101876.75;;;1.70;73.55
76311;BME280;65120;59.304;18.294;2022-12-18T11:47:38;101906.19;;;1.77;73.37
76311;BME280;65120;59.304;18.294;2022-12-18T11:50:13;101889.91;;;1.78;73.65
76311;BME280;65120;59.304;18.294;2022-12-18T11:52:40;101896.88;;;1.80;73.66
76311;BME280;65120;59.304;18.294;2022-12-18T11:55:12;101896.88;;;1.80;73.31
76311;BME280;65120;59.304;18.294;2022-12-18T11:57:50;101895.16;;;1.81;73.50
76311;BME280;65120;59.304;18.294;2022-12-18T12:00:22;101875.19;;;1.74;73.46
76311;BME280;65120;59.304;18.294;2022-12-18T12:05:57;101897.91;;;1.86;73.79
76311;BME280;65120;59.304;18.294;2022-12-18T12:08:35;101893.66;;;1.88;74.02
76311;BME280;65120;59.304;18.294;2022-12-18T12:11:11;101890.28;;;1.89;73.37
76311;BME280;65120;59.304;18.294;2022-12-18T12:13:57;101886.00;;;1.89;72.91
76311;BME280;65120;59.304;18.294;2022-12-18T12:16:31;101890.31;;;1.90;73.48
76311;BME280;65120;59.304;18.294;2022-12-18T12:19:13;101896.41;;;1.92;72.78
76311;BME280;65120;59.304;18.294;2022-12-18T12:21:48;101905.00;;;1.91;73.92
76311;BME280;65120;59.304;18.294;2022-12-18T12:24:28;101905.91;;;1.93;73.66
76311;BME280;65120;59.304;18.294;2022-12-18T12:27:08;101899.06;;;1.94;73.46
76311;BME280;65120;59.304;18.294;2022-12-18T12:29:49;101906.84;;;1.95;73.42
76311;BME280;65120;59.304;18.294;2022-12-18T12:32:28;101915.50;;;1.97;73.08
76311;BME280;65120;59.304;18.294;2022-12-18T12:35:09;101915.53;;;1.99;73.34
76311;BME280;65120;59.304;18.294;2022-12-18T12:37:48;101924.19;;;1.99;73.50
76311;BME280;65120;59.304;18.294;2022-12-18T12:40:24;101925.91;;;2.00;73.20
76311;BME280;65120;59.304;18.294;2022-12-18T12:42:55;101915.63;;;2.02;73.42
76311;BME280;65120;59.304;18.294;2022-12-18T12:45:44;101913.06;;;2.02;73.49
76311;BME280;65120;59.304;18.294;2022-12-18T12:48:20;101926.03;;;2.03;73.07
76311;BME280;65120;59.304;18.294;2022-12-18T12:50:48;101890.22;;;1.87;73.19
76311;BME280;65120;59.304;18.294;2022-12-18T12:53:22;101918.28;;;2.03;73.32
76311;BME280;65120;59.304;18.294;2022-12-18T12:55:50;101924.38;;;2.06;73.32
76311;BME280;65120;59.304;18.294;2022-12-18T12:58:25;101921.81;;;2.06;72.68
76311;BME280;65120;59.304;18.294;2022-12-18T13:01:01;101927.88;;;2.08;73.76